createdAt,value
2022-08-26T00:01:29.640Z,101075.31
2022-08-26T00:03:56.530Z,101077.56
2022-08-26T00:06:23.120Z,101074.44
2022-08-26T00:08:49.671Z,101075.00
2022-08-26T00:11:16.431Z,101070.06
2022-08-26T00:13:54.241Z,101070.00
2022-08-26T00:16:21.064Z,101064.59
2022-08-26T00:18:47.577Z,101064.66
2022-08-26T00:21:14.468Z,101070.00
2022-08-26T00:23:40.982Z,101071.06
2022-08-26T00:26:08.340Z,101065.03
2022-08-26T00:28:37.597Z,101070.16
2022-08-26T00:31:04.476Z,101064.03
2022-08-26T00:33:33.516Z,101056.00
2022-08-26T00:36:01.406Z,101060.16
2022-08-26T00:38:29.201Z,101062.00
2022-08-26T00:40:57.418Z,101063.84
2022-08-26T00:43:25.871Z,101060.75
2022-08-26T00:46:04.485Z,101052.81
2022-08-26T00:48:33.594Z,101050.84
2022-08-26T00:51:10.742Z,101053.84
2022-08-26T00:53:44.661Z,101056.66
2022-08-26T00:56:27.229Z,101063.97
2022-08-26T00:58:55.174Z,101055.13
2022-08-26T01:01:22.907Z,101053.22
2022-08-26T01:03:49.746Z,101058.78
2022-08-26T01:06:16.334Z,101058.50
2022-08-26T01:08:43.740Z,101056.72
2022-08-26T01:11:11.772Z,101062.72
2022-08-26T01:13:39.223Z,101054.66
2022-08-26T01:16:08.341Z,101052.38
2022-08-26T01:18:35.998Z,101062.03
2022-08-26T01:21:18.161Z,101055.38
2022-08-26T01:23:51.061Z,101050.94
2022-08-26T01:26:33.364Z,101051.97
2022-08-26T01:29:02.969Z,101057.69
2022-08-26T01:31:35.363Z,101053.59
2022-08-26T01:34:06.967Z,101051.59
2022-08-26T01:36:37.139Z,101047.31
2022-08-26T01:39:05.908Z,101042.50
2022-08-26T01:41:35.182Z,101048.94
2022-08-26T01:44:03.779Z,101046.94
2022-08-26T01:46:30.733Z,101042.38
2022-08-26T01:49:00.272Z,101047.44
2022-08-26T01:51:27.857Z,101048.25
2022-08-26T01:53:55.073Z,101040.66
2022-08-26T01:56:23.578Z,101047.91
2022-08-26T01:58:57.126Z,101044.84
2022-08-26T02:01:29.143Z,101050.56
2022-08-26T02:04:03.792Z,101049.84
2022-08-26T02:06:30.897Z,101047.50
2022-08-26T02:09:00.228Z,101047.09
2022-08-26T02:11:27.606Z,101040.22
2022-08-26T02:13:58.241Z,101037.53
2022-08-26T02:16:27.444Z,101036.72
2022-08-26T02:18:56.534Z,101037.81
2022-08-26T02:21:24.939Z,101030.22
2022-08-26T02:23:52.394Z,101029.91
2022-08-26T02:26:26.956Z,101029.56
2022-08-26T02:29:02.380Z,101027.25
2022-08-26T02:31:29.139Z,101030.00
2022-08-26T02:33:55.903Z,101021.59
2022-08-26T02:36:28.612Z,101025.75
2022-08-26T02:38:55.442Z,101018.03
2022-08-26T02:41:23.108Z,101023.84
2022-08-26T02:43:50.690Z,101020.78
2022-08-26T02:46:21.647Z,101021.47
2022-08-26T02:48:54.712Z,101021.75
2022-08-26T02:51:21.247Z,101022.03
2022-08-26T02:53:49.049Z,101015.63
2022-08-26T02:56:15.572Z,101021.44
2022-08-26T02:58:42.269Z,101018.41
2022-08-26T03:01:19.479Z,101014.91
2022-08-26T03:03:46.046Z,101014.16
2022-08-26T03:06:14.810Z,101005.38
2022-08-26T03:08:42.476Z,101013.41
2022-08-26T03:11:11.251Z,101006.00
2022-08-26T03:13:38.602Z,101006.41
2022-08-26T03:16:07.025Z,101002.19
2022-08-26T03:18:34.342Z,101011.13
2022-08-26T03:21:14.362Z,101001.56
2022-08-26T03:23:42.095Z,101005.84
2022-08-26T03:26:13.268Z,100998.59
2022-08-26T03:29:00.199Z,100999.38
2022-08-26T03:31:26.806Z,100997.50
2022-08-26T03:33:56.576Z,100995.41
2022-08-26T03:36:26.600Z,100990.16
2022-08-26T03:38:53.570Z,100985.16
2022-08-26T03:41:21.362Z,100984.75
2022-08-26T03:43:50.714Z,100991.94
2022-08-26T03:46:18.433Z,100993.16
2022-08-26T03:48:45.788Z,100991.97
2022-08-26T03:51:19.055Z,100992.78
2022-08-26T03:53:46.316Z,101002.34
2022-08-26T03:56:12.849Z,100997.03
2022-08-26T03:58:39.491Z,100988.22
2022-08-26T04:01:09.584Z,100988.91
2022-08-26T04:03:54.829Z,100989.41
2022-08-26T04:06:21.467Z,100994.03
2022-08-26T04:08:48.109Z,100994.81
2022-08-26T04:11:19.969Z,100990.47
2022-08-26T04:13:47.324Z,101002.59
2022-08-26T04:16:15.531Z,100996.50
2022-08-26T04:18:46.565Z,100994.66
2022-08-26T04:21:15.182Z,100984.38
2022-08-26T04:23:47.837Z,100992.44
2022-08-26T04:26:15.209Z,100986.59
2022-08-26T04:28:43.343Z,100993.81
2022-08-26T04:31:17.751Z,100992.94
2022-08-26T04:33:47.493Z,100999.09
2022-08-26T04:36:16.258Z,100994.94
2022-08-26T04:38:43.187Z,100983.78
2022-08-26T04:41:15.066Z,101001.34
2022-08-26T04:43:43.503Z,100998.31
2022-08-26T04:46:13.083Z,101000.97
2022-08-26T04:48:40.942Z,100997.94
2022-08-26T04:51:08.013Z,101004.06
2022-08-26T04:53:34.828Z,101007.50
2022-08-26T04:56:02.927Z,101006.72
2022-08-26T04:58:31.429Z,101011.66
2022-08-26T05:00:59.910Z,101002.84
2022-08-26T05:03:30.514Z,101004.66
2022-08-26T05:05:58.380Z,101000.13
2022-08-26T05:08:25.112Z,101003.63
2022-08-26T05:10:56.234Z,101010.81
2022-08-26T05:13:26.280Z,101009.28
2022-08-26T05:15:53.191Z,101002.31
2022-08-26T05:18:23.911Z,100999.72
2022-08-26T05:20:54.604Z,101007.47
2022-08-26T05:23:22.842Z,101017.78
2022-08-26T05:25:58.961Z,101011.63
2022-08-26T05:28:28.401Z,101003.88
2022-08-26T05:30:58.158Z,101016.19
2022-08-26T05:33:25.073Z,101014.63
2022-08-26T05:35:52.057Z,101005.47
2022-08-26T05:38:20.719Z,101013.88
2022-08-26T05:40:52.761Z,101007.69
2022-08-26T05:43:20.212Z,101014.59
2022-08-26T05:45:49.193Z,101006.88
2022-08-26T05:48:18.266Z,101007.63
2022-08-26T05:50:48.147Z,101012.44
2022-08-26T05:53:17.597Z,101013.94
2022-08-26T05:55:46.784Z,101014.31
2022-08-26T05:58:13.723Z,101017.03
2022-08-26T06:00:40.555Z,101015.91
2022-08-26T06:03:08.687Z,101016.25
2022-08-26T06:05:41.655Z,101013.13
2022-08-26T06:08:11.407Z,101022.16
2022-08-26T06:10:55.716Z,101016.00
2022-08-26T06:13:30.281Z,101008.78
2022-08-26T06:15:59.410Z,101013.72
2022-08-26T06:18:32.693Z,101023.91
2022-08-26T06:20:59.805Z,101019.84
2022-08-26T06:23:47.112Z,101021.31
2022-08-26T06:26:16.553Z,101016.13
2022-08-26T06:28:45.609Z,101021.16
2022-08-26T06:31:12.763Z,101025.72
2022-08-26T06:33:39.406Z,101018.50
2022-08-26T06:36:06.723Z,101017.75
2022-08-26T06:38:33.711Z,101024.84
2022-08-26T06:41:02.961Z,101022.16
2022-08-26T06:43:29.733Z,101029.50
2022-08-26T06:46:05.467Z,101019.81
2022-08-26T06:48:32.155Z,101025.28
2022-08-26T06:51:09.218Z,101026.72
2022-08-26T06:53:37.269Z,101027.06
2022-08-26T06:56:05.540Z,101026.16
2022-08-26T06:58:33.184Z,101020.72
2022-08-26T07:01:03.714Z,101029.06
2022-08-26T07:03:39.828Z,101023.69
2022-08-26T07:06:08.095Z,101022.50
2022-08-26T07:08:34.641Z,101019.47
2022-08-26T07:11:05.615Z,101032.81
2022-08-26T07:13:32.143Z,101017.31
2022-08-26T07:15:59.046Z,101024.03
2022-08-26T07:18:30.234Z,101013.19
2022-08-26T07:20:56.738Z,101014.75
2022-08-26T07:23:23.979Z,101012.44
2022-08-26T07:25:50.930Z,101008.75
2022-08-26T07:28:17.528Z,101010.22
2022-08-26T07:30:44.100Z,101014.81
2022-08-26T07:33:10.892Z,100997.72
2022-08-26T07:35:37.995Z,101004.75
2022-08-26T07:38:04.460Z,101001.06
2022-08-26T07:40:32.077Z,100997.03
2022-08-26T07:42:58.633Z,100994.25
2022-08-26T07:45:27.526Z,101006.19
2022-08-26T07:47:54.624Z,101006.53
2022-08-26T07:50:22.464Z,101002.16
2022-08-26T07:53:10.829Z,101003.66
2022-08-26T07:55:37.529Z,101014.47
2022-08-26T07:58:05.589Z,101008.34
2022-08-26T08:00:33.810Z,101008.63
2022-08-26T08:03:02.256Z,101008.09
2022-08-26T08:05:33.525Z,101010.78
2022-08-26T08:08:26.213Z,101007.13
2022-08-26T08:10:48.954Z,101012.66
2022-08-26T08:13:15.663Z,101017.19
2022-08-26T08:15:42.288Z,101023.66
2022-08-26T08:18:15.320Z,101017.25
2022-08-26T08:20:47.558Z,101011.09
2022-08-26T08:23:26.015Z,101013.81
2022-08-26T08:26:01.459Z,101024.56
2022-08-26T08:28:28.356Z,101016.97
2022-08-26T08:30:55.007Z,101005.81
2022-08-26T08:33:21.708Z,101008.72
2022-08-26T08:35:48.515Z,101004.16
2022-08-26T08:38:17.170Z,101004.25
2022-08-26T08:40:46.114Z,101007.19
2022-08-26T08:43:14.878Z,101009.47
2022-08-26T08:45:48.176Z,101007.53
2022-08-26T08:48:27.648Z,101001.56
2022-08-26T08:51:04.498Z,100998.53
2022-08-26T08:53:35.353Z,101005.69
2022-08-26T08:56:18.399Z,100994.59
2022-08-26T08:59:04.327Z,100999.56
2022-08-26T09:01:42.400Z,100995.53
2022-08-26T09:04:32.894Z,100995.88
2022-08-26T09:07:01.424Z,100992.50
2022-08-26T09:09:42.027Z,100994.69
2022-08-26T09:12:21.062Z,100995.94
2022-08-26T09:15:13.127Z,100998.63
2022-08-26T09:18:08.567Z,100995.69
2022-08-26T09:20:47.553Z,100994.56
2022-08-26T09:23:15.532Z,100995.53
2022-08-26T09:25:52.544Z,100985.75
2022-08-26T09:28:22.973Z,100989.25
2022-08-26T09:31:19.672Z,100979.34
2022-08-26T09:33:48.599Z,100979.41
2022-08-26T09:36:41.178Z,100979.00
2022-08-26T09:39:37.664Z,100984.69
2022-08-26T09:42:04.544Z,100978.84
2022-08-26T09:44:31.762Z,100973.63
2022-08-26T09:47:02.212Z,100971.28
2022-08-26T09:49:35.964Z,100975.84
2022-08-26T09:52:21.771Z,100975.91
2022-08-26T09:55:01.545Z,100983.63
2022-08-26T09:57:35.930Z,100960.84
2022-08-26T10:00:26.372Z,100970.00
2022-08-26T10:02:56.039Z,100967.50
2022-08-26T10:05:58.629Z,100963.03
2022-08-26T10:08:34.330Z,100962.06
2022-08-26T10:11:04.488Z,100967.19
2022-08-26T10:13:31.244Z,100961.28
2022-08-26T10:16:33.348Z,100957.69
2022-08-26T10:19:08.694Z,100962.63
2022-08-26T10:22:01.950Z,100960.59
2022-08-26T10:24:32.289Z,100958.41
2022-08-26T10:27:20.931Z,100963.03
2022-08-26T10:29:50.099Z,100957.28
2022-08-26T10:32:41.770Z,100947.25
2022-08-26T10:35:11.114Z,100942.44
2022-08-26T10:37:40.485Z,100938.91
2022-08-26T10:40:08.630Z,100944.19
2022-08-26T10:42:38.031Z,100947.31
2022-08-26T10:45:15.567Z,100945.19
2022-08-26T10:48:02.333Z,100940.13
2022-08-26T10:50:55.294Z,100931.50
2022-08-26T10:53:34.321Z,100930.38
2022-08-26T10:56:38.389Z,100930.53
2022-08-26T10:59:18.950Z,100928.59
2022-08-26T11:01:54.804Z,100929.09
2022-08-26T11:04:48.704Z,100930.53
2022-08-26T11:07:46.088Z,100926.59
2022-08-26T11:10:18.759Z,100922.94
2022-08-26T11:12:49.499Z,100929.78
2022-08-26T11:15:24.367Z,100924.13
2022-08-26T11:17:51.207Z,100922.94
2022-08-26T11:20:24.295Z,100922.81
2022-08-26T11:22:52.799Z,100920.38
2022-08-26T11:25:29.700Z,100917.50
2022-08-26T11:28:06.097Z,100915.94
2022-08-26T11:30:37.871Z,100913.34
2022-08-26T11:33:06.317Z,100906.34
2022-08-26T11:35:45.603Z,100910.47
2022-08-26T11:38:25.453Z,100907.91
2022-08-26T11:40:58.115Z,100908.94
2022-08-26T11:43:26.068Z,100905.47
2022-08-26T11:46:01.278Z,100907.00
2022-08-26T11:48:33.386Z,100901.53
2022-08-26T11:51:20.889Z,100902.56
2022-08-26T11:53:47.455Z,100895.97
2022-08-26T11:56:34.376Z,100885.94
2022-08-26T11:59:09.997Z,100885.13
2022-08-26T12:01:40.422Z,100879.31
2022-08-26T12:04:10.658Z,100883.00
2022-08-26T12:06:47.717Z,100881.34
2022-08-26T12:09:25.232Z,100884.25
2022-08-26T12:11:58.033Z,100878.22
2022-08-26T12:14:27.666Z,100875.34
2022-08-26T12:16:55.048Z,100865.41
2022-08-26T12:19:33.821Z,100865.75
2022-08-26T12:22:27.571Z,100864.72
2022-08-26T12:25:00.149Z,100860.69
2022-08-26T12:27:39.756Z,100856.19
2022-08-26T12:30:19.216Z,100860.41
2022-08-26T12:33:03.585Z,100860.66
2022-08-26T12:35:51.446Z,100849.34
2022-08-26T12:38:21.490Z,100855.41
2022-08-26T12:40:50.345Z,100850.34
2022-08-26T12:43:42.521Z,100845.47
2022-08-26T12:46:11.990Z,100841.78
2022-08-26T12:48:41.634Z,100845.00
2022-08-26T12:51:22.878Z,100836.22
2022-08-26T12:53:49.478Z,100839.56
2022-08-26T12:56:30.483Z,100832.31
2022-08-26T12:59:25.165Z,100838.81
2022-08-26T13:01:54.213Z,100827.81
2022-08-26T13:04:42.617Z,100831.91
2022-08-26T13:07:24.702Z,100835.66
2022-08-26T13:09:54.618Z,100824.16
2022-08-26T13:12:32.626Z,100829.38
2022-08-26T13:15:00.652Z,100821.03
2022-08-26T13:17:28.418Z,100819.88
2022-08-26T13:19:57.987Z,100809.69
2022-08-26T13:22:26.730Z,100808.91
2022-08-26T13:24:55.739Z,100809.00
2022-08-26T13:27:26.402Z,100804.03
2022-08-26T13:29:53.460Z,100796.84
2022-08-26T13:32:27.325Z,100796.41
2022-08-26T13:34:55.821Z,100780.34
2022-08-26T13:37:24.361Z,100792.78
2022-08-26T13:40:01.425Z,100780.50
2022-08-26T13:42:27.981Z,100786.75
2022-08-26T13:44:58.045Z,100795.56
2022-08-26T13:47:26.089Z,100784.38
2022-08-26T13:49:55.208Z,100783.78
2022-08-26T13:52:29.182Z,100776.47
2022-08-26T13:55:01.651Z,100773.69
2022-08-26T13:57:30.053Z,100768.81
2022-08-26T13:59:59.470Z,100758.78
2022-08-26T14:02:27.597Z,100770.03
2022-08-26T14:04:55.324Z,100771.19
2022-08-26T14:07:22.522Z,100758.78
2022-08-26T14:09:49.413Z,100753.63
2022-08-26T14:12:16.551Z,100752.13
2022-08-26T14:14:44.425Z,100753.63
2022-08-26T14:17:13.659Z,100753.47
2022-08-26T14:19:44.129Z,100750.03
2022-08-26T14:22:10.720Z,100748.03
2022-08-26T14:24:37.295Z,100741.00
2022-08-26T14:27:04.033Z,100742.50
2022-08-26T14:29:30.607Z,100736.97
2022-08-26T14:31:58.707Z,100739.13
2022-08-26T14:34:25.458Z,100736.50
2022-08-26T14:36:52.016Z,100726.09
2022-08-26T14:39:21.812Z,100736.03
2022-08-26T14:41:55.044Z,100729.06
2022-08-26T14:44:25.082Z,100719.03
2022-08-26T14:46:52.910Z,100720.28
2022-08-26T14:49:20.507Z,100722.09
2022-08-26T14:51:47.613Z,100712.63
2022-08-26T14:54:17.870Z,100710.19
2022-08-26T14:56:50.275Z,100708.75
2022-08-26T14:59:20.283Z,100709.59
2022-08-26T15:01:47.322Z,100709.88
2022-08-26T15:04:14.984Z,100702.22
2022-08-26T15:06:41.741Z,100703.56
2022-08-26T15:09:08.481Z,100703.56
2022-08-26T15:11:35.285Z,100695.59
2022-08-26T15:14:02.402Z,100701.06
2022-08-26T15:16:29.296Z,100697.88
2022-08-26T15:18:56.681Z,100696.91
2022-08-26T15:21:24.272Z,100689.75
2022-08-26T15:23:51.911Z,100697.19
2022-08-26T15:26:19.409Z,100697.59
2022-08-26T15:28:46.311Z,100694.66
2022-08-26T15:31:13.272Z,100690.69
2022-08-26T15:33:40.442Z,100692.25
2022-08-26T15:36:08.114Z,100691.88
2022-08-26T15:38:38.197Z,100692.16
2022-08-26T15:41:06.029Z,100684.88
2022-08-26T15:43:32.764Z,100690.97
2022-08-26T15:45:59.340Z,100689.72
2022-08-26T15:48:27.844Z,100679.91
2022-08-26T15:50:57.392Z,100685.59
2022-08-26T15:53:26.373Z,100686.97
2022-08-26T15:55:55.087Z,100682.78
2022-08-26T15:58:24.223Z,100685.81
2022-08-26T16:00:53.857Z,100675.03
2022-08-26T16:03:20.981Z,100667.19
2022-08-26T16:05:48.145Z,100670.59
2022-08-26T16:08:15.474Z,100667.47
2022-08-26T16:10:49.750Z,100667.34
2022-08-26T16:13:19.197Z,100673.66
2022-08-26T16:15:47.640Z,100665.97
2022-08-26T16:18:15.690Z,100662.81
2022-08-26T16:21:12.340Z,100656.69
2022-08-26T16:23:38.706Z,100663.75
2022-08-26T16:26:14.521Z,100656.69
2022-08-26T16:28:41.460Z,100661.03
2022-08-26T16:31:10.642Z,100655.94
2022-08-26T16:33:40.714Z,100657.44
2022-08-26T16:36:08.252Z,100659.09
2022-08-26T16:38:35.606Z,100660.16
2022-08-26T16:41:02.428Z,100658.97
2022-08-26T16:43:29.790Z,100655.25
2022-08-26T16:45:56.600Z,100658.25
2022-08-26T16:48:25.258Z,100661.72
2022-08-26T16:50:51.977Z,100659.88
2022-08-26T16:53:19.054Z,100662.28
2022-08-26T16:55:47.049Z,100661.38
2022-08-26T16:58:13.682Z,100663.16
2022-08-26T17:00:40.378Z,100662.06
2022-08-26T17:03:07.097Z,100663.81
2022-08-26T17:05:33.757Z,100666.22
2022-08-26T17:08:00.699Z,100669.88
2022-08-26T17:10:34.853Z,100667.16
2022-08-26T17:13:01.423Z,100665.69
2022-08-26T17:15:28.422Z,100666.94
2022-08-26T17:17:55.451Z,100667.63
2022-08-26T17:20:23.373Z,100671.78
2022-08-26T17:22:51.708Z,100677.06
2022-08-26T17:25:24.965Z,100678.88
2022-08-26T17:27:51.695Z,100684.63
2022-08-26T17:30:19.339Z,100686.13
2022-08-26T17:32:47.335Z,100684.81
2022-08-26T17:35:15.772Z,100683.94
2022-08-26T17:37:43.138Z,100690.97
2022-08-26T17:40:15.419Z,100693.59
2022-08-26T17:42:42.167Z,100685.56
2022-08-26T17:45:09.248Z,100688.38
2022-08-26T17:47:36.031Z,100686.91
2022-08-26T17:50:04.485Z,100684.34
2022-08-26T17:52:31.307Z,100691.28
2022-08-26T17:54:58.371Z,100689.78
2022-08-26T17:57:25.938Z,100690.44
2022-08-26T17:59:53.659Z,100695.94
2022-08-26T18:02:21.178Z,100694.84
2022-08-26T18:04:47.889Z,100700.72
2022-08-26T18:07:14.915Z,100703.59
2022-08-26T18:09:41.528Z,100703.91
2022-08-26T18:12:08.373Z,100698.44
2022-08-26T18:14:35.291Z,100696.94
2022-08-26T18:17:02.040Z,100695.41
2022-08-26T18:19:29.805Z,100695.41
2022-08-26T18:21:56.845Z,100696.56
2022-08-26T18:24:23.721Z,100695.56
2022-08-26T18:26:51.128Z,100705.75
2022-08-26T18:29:19.364Z,100702.06
2022-08-26T18:31:45.936Z,100709.41
2022-08-26T18:34:15.656Z,100708.75
2022-08-26T18:36:43.022Z,100703.75
2022-08-26T18:39:10.805Z,100707.94
2022-08-26T18:41:44.053Z,100703.25
2022-08-26T18:44:13.704Z,100706.81
2022-08-26T18:46:41.079Z,100711.34
2022-08-26T18:49:08.354Z,100700.25
2022-08-26T18:51:35.405Z,100702.28
2022-08-26T18:54:05.265Z,100699.25
2022-08-26T18:56:33.505Z,100699.91
2022-08-26T18:59:00.523Z,100706.22
2022-08-26T19:01:28.522Z,100707.50
2022-08-26T19:03:56.895Z,100703.81
2022-08-26T19:06:25.505Z,100713.47
2022-08-26T19:08:52.090Z,100709.50
2022-08-26T19:11:32.525Z,100707.81
2022-08-26T19:14:08.709Z,100706.88
2022-08-26T19:16:36.163Z,100710.09
2022-08-26T19:19:03.833Z,100708.00
2022-08-26T19:21:33.142Z,100710.34
2022-08-26T19:24:02.345Z,100712.97
2022-08-26T19:26:30.540Z,100716.09
2022-08-26T19:29:01.222Z,100704.00
2022-08-26T19:31:28.254Z,100710.72
2022-08-26T19:33:56.624Z,100709.34
2022-08-26T19:36:25.200Z,100709.97
2022-08-26T19:38:51.865Z,100715.28
2022-08-26T19:41:24.543Z,100718.22
2022-08-26T19:43:55.404Z,100709.38
2022-08-26T19:46:26.607Z,100711.72
2022-08-26T19:48:55.696Z,100717.56
2022-08-26T19:51:25.939Z,100714.88
2022-08-26T19:53:54.067Z,100716.53
2022-08-26T19:56:21.469Z,100716.25
2022-08-26T19:58:48.811Z,100709.91
2022-08-26T20:01:16.110Z,100712.47
2022-08-26T20:03:43.485Z,100716.97
2022-08-26T20:06:12.007Z,100710.72
2022-08-26T20:08:39.581Z,100711.97
2022-08-26T20:11:12.478Z,100715.31
2022-08-26T20:13:39.784Z,100709.63
2022-08-26T20:16:06.927Z,100705.25
2022-08-26T20:18:52.478Z,100704.88
2022-08-26T20:21:29.334Z,100700.75
2022-08-26T20:24:02.609Z,100701.50
2022-08-26T20:26:31.806Z,100705.44
2022-08-26T20:28:58.752Z,100702.59
2022-08-26T20:31:26.359Z,100701.09
2022-08-26T20:33:53.587Z,100702.19
2022-08-26T20:36:22.231Z,100709.22
2022-08-26T20:38:50.243Z,100701.31
2022-08-26T20:41:17.604Z,100696.97
2022-08-26T20:43:44.312Z,100695.69
2022-08-26T20:46:18.142Z,100703.63
2022-08-26T20:48:47.820Z,100692.38
2022-08-26T20:51:16.175Z,100691.69
2022-08-26T20:53:44.264Z,100689.22
2022-08-26T20:56:12.723Z,100698.09
2022-08-26T20:58:39.830Z,100698.25
2022-08-26T21:01:08.157Z,100694.84
2022-08-26T21:03:35.794Z,100702.91
2022-08-26T21:06:04.248Z,100698.38
2022-08-26T21:08:33.249Z,100697.91
2022-08-26T21:11:00.893Z,100697.06
2022-08-26T21:13:42.861Z,100698.22
2022-08-26T21:16:15.151Z,100694.50
2022-08-26T21:18:42.848Z,100699.47
2022-08-26T21:21:10.626Z,100697.59
2022-08-26T21:23:37.791Z,100700.81
2022-08-26T21:26:06.403Z,100697.59
2022-08-26T21:28:34.987Z,100687.00
2022-08-26T21:31:04.363Z,100693.00
2022-08-26T21:33:31.145Z,100698.25
2022-08-26T21:35:57.717Z,100698.44
2022-08-26T21:38:24.268Z,100693.81
2022-08-26T21:41:01.685Z,100702.16
2022-08-26T21:43:35.552Z,100698.72
2022-08-26T21:46:16.954Z,100708.19
2022-08-26T21:48:49.958Z,100706.25
2022-08-26T21:51:19.146Z,100698.59
2022-08-26T21:53:45.689Z,100701.91
2022-08-26T21:56:14.806Z,100707.41
2022-08-26T21:58:41.594Z,100705.84
2022-08-26T22:01:10.369Z,100711.38
2022-08-26T22:03:47.022Z,100702.03
2022-08-26T22:06:17.708Z,100720.88
2022-08-26T22:08:44.246Z,100708.03
2022-08-26T22:11:11.027Z,100705.13
2022-08-26T22:13:39.363Z,100715.47
2022-08-26T22:16:06.827Z,100712.34
2022-08-26T22:18:34.197Z,100707.63
2022-08-26T22:21:04.597Z,100703.28
2022-08-26T22:23:31.353Z,100708.03
2022-08-26T22:25:58.347Z,100702.63
2022-08-26T22:28:26.044Z,100710.38
2022-08-26T22:30:52.780Z,100705.72
2022-08-26T22:33:19.893Z,100711.94
2022-08-26T22:35:48.998Z,100711.50
2022-08-26T22:38:16.132Z,100707.41
2022-08-26T22:40:48.427Z,100713.31
2022-08-26T22:43:15.304Z,100711.66
2022-08-26T22:45:43.885Z,100711.06
2022-08-26T22:48:12.227Z,100707.19
2022-08-26T22:50:38.924Z,100712.06
2022-08-26T22:53:05.446Z,100701.44
2022-08-26T22:55:32.079Z,100701.44
2022-08-26T22:57:58.774Z,100699.63
2022-08-26T23:00:32.023Z,100703.25
2022-08-26T23:02:59.152Z,100688.47
2022-08-26T23:05:25.772Z,100702.94
2022-08-26T23:07:52.488Z,100693.41
2022-08-26T23:10:19.112Z,100692.91
2022-08-26T23:12:45.708Z,100693.84
2022-08-26T23:15:12.725Z,100702.16
2022-08-26T23:17:39.536Z,100697.78
2022-08-26T23:20:10.035Z,100689.09
2022-08-26T23:22:37.159Z,100692.84
2022-08-26T23:25:07.786Z,100689.13
2022-08-26T23:27:41.049Z,100701.28
2022-08-26T23:30:12.695Z,100688.56
2022-08-26T23:32:39.278Z,100692.09
2022-08-26T23:35:06.371Z,100689.28
2022-08-26T23:37:38.978Z,100693.16
2022-08-26T23:40:20.780Z,100689.97
2022-08-26T23:42:47.649Z,100687.41
2022-08-26T23:45:14.670Z,100689.66
2022-08-26T23:47:41.754Z,100682.66
2022-08-26T23:50:09.068Z,100671.66
2022-08-26T23:52:54.543Z,100682.13
2022-08-26T23:55:21.321Z,100678.25
2022-08-26T23:57:47.917Z,100672.59
